createdAt,value
2023-03-19T00:00:56.315Z,100
2023-03-19T00:03:03.457Z,100
2023-03-19T00:05:09.432Z,100
2023-03-19T00:07:15.161Z,100
2023-03-19T00:09:20.918Z,100
2023-03-19T00:11:26.489Z,100
2023-03-19T00:13:32.241Z,100
2023-03-19T00:15:40.751Z,100
2023-03-19T00:17:46.092Z,100
2023-03-19T00:19:51.494Z,100
2023-03-19T00:21:57.057Z,100
2023-03-19T00:24:02.633Z,100
2023-03-19T00:26:08.415Z,100
2023-03-19T00:28:13.967Z,100
2023-03-19T00:30:19.460Z,100
2023-03-19T00:32:24.949Z,100
2023-03-19T00:34:30.356Z,100
2023-03-19T00:36:38.096Z,100
2023-03-19T00:38:43.522Z,100
2023-03-19T00:40:49.161Z,100
2023-03-19T00:42:54.786Z,100
2023-03-19T00:45:01.109Z,100
2023-03-19T00:47:06.751Z,100
2023-03-19T00:49:12.507Z,100
2023-03-19T00:51:18.060Z,100
2023-03-19T00:53:23.455Z,100
2023-03-19T00:55:28.894Z,100
2023-03-19T00:57:34.350Z,100
2023-03-19T00:59:39.884Z,100
2023-03-19T01:01:46.015Z,100
2023-03-19T01:03:51.525Z,100
2023-03-19T01:05:57.032Z,100
2023-03-19T01:08:02.448Z,100
2023-03-19T01:10:07.804Z,100
2023-03-19T01:12:13.160Z,100
2023-03-19T01:14:18.651Z,100
2023-03-19T01:16:24.069Z,100
2023-03-19T01:18:29.467Z,100
2023-03-19T01:20:36.013Z,100
2023-03-19T01:22:42.731Z,100
2023-03-19T01:24:48.344Z,100
2023-03-19T01:26:53.947Z,100
2023-03-19T01:28:59.295Z,100
2023-03-19T01:31:05.134Z,100
2023-03-19T01:33:10.920Z,100
2023-03-19T01:35:16.280Z,100
2023-03-19T01:37:21.488Z,100
2023-03-19T01:39:26.594Z,100
2023-03-19T01:41:32.053Z,100
2023-03-19T01:43:37.229Z,100
2023-03-19T01:45:42.539Z,100
2023-03-19T01:47:47.806Z,100
2023-03-19T01:49:53.124Z,100
2023-03-19T01:51:58.571Z,100
2023-03-19T01:54:03.862Z,100
2023-03-19T01:56:09.328Z,100
2023-03-19T01:58:15.045Z,100
2023-03-19T02:00:20.446Z,100
2023-03-19T02:02:26.107Z,100
2023-03-19T02:04:31.446Z,100
2023-03-19T02:06:36.671Z,100
2023-03-19T02:08:41.932Z,100
2023-03-19T02:10:47.084Z,100
2023-03-19T02:12:53.612Z,100
2023-03-19T02:14:59.157Z,100
2023-03-19T02:17:04.624Z,100
2023-03-19T02:19:09.979Z,100
2023-03-19T02:21:15.675Z,100
2023-03-19T02:23:21.059Z,100
2023-03-19T02:25:26.470Z,100
2023-03-19T02:27:32.082Z,100
2023-03-19T02:29:37.638Z,100
2023-03-19T02:31:43.111Z,100
2023-03-19T02:33:48.744Z,100
2023-03-19T02:35:54.607Z,100
2023-03-19T02:38:00.386Z,100
2023-03-19T02:40:05.701Z,100
2023-03-19T02:42:11.041Z,100
2023-03-19T02:44:16.719Z,100
2023-03-19T02:46:23.672Z,100
2023-03-19T02:48:29.497Z,100
2023-03-19T02:50:35.874Z,100
2023-03-19T02:52:41.392Z,100
2023-03-19T02:54:46.964Z,100
2023-03-19T02:56:52.358Z,100
2023-03-19T02:58:57.587Z,100
2023-03-19T03:01:06.470Z,100
2023-03-19T03:03:11.771Z,100
2023-03-19T03:05:17.527Z,100
2023-03-19T03:07:22.897Z,100
2023-03-19T03:09:28.527Z,100
2023-03-19T03:11:34.073Z,100
2023-03-19T03:13:40.031Z,100
2023-03-19T03:15:45.326Z,100
2023-03-19T03:17:51.045Z,100
2023-03-19T03:19:56.546Z,100
2023-03-19T03:22:02.079Z,100
2023-03-19T03:24:07.474Z,100
2023-03-19T03:26:12.838Z,100
2023-03-19T03:28:18.330Z,100
2023-03-19T03:30:23.931Z,100
2023-03-19T03:32:29.408Z,100
2023-03-19T03:34:35.246Z,100
2023-03-19T03:36:41.311Z,100
2023-03-19T03:38:46.780Z,100
2023-03-19T03:40:52.438Z,100
2023-03-19T03:42:58.439Z,100
2023-03-19T03:45:03.952Z,100
2023-03-19T03:47:09.299Z,100
2023-03-19T03:49:17.131Z,100
2023-03-19T03:51:22.632Z,100
2023-03-19T03:53:28.154Z,100
2023-03-19T03:55:33.955Z,100
2023-03-19T03:57:39.568Z,100
2023-03-19T03:59:45.103Z,100
2023-03-19T04:01:51.546Z,100
2023-03-19T04:03:57.098Z,100
2023-03-19T04:06:02.451Z,100
2023-03-19T04:08:08.061Z,100
2023-03-19T04:10:13.571Z,100
2023-03-19T04:12:19.214Z,100
2023-03-19T04:14:24.660Z,100
2023-03-19T04:16:30.377Z,100
2023-03-19T04:18:35.786Z,100
2023-03-19T04:20:41.444Z,100
2023-03-19T04:22:47.032Z,100
2023-03-19T04:24:52.619Z,100
2023-03-19T04:27:01.133Z,100
2023-03-19T04:29:06.744Z,100
2023-03-19T04:31:12.771Z,100
2023-03-19T04:33:18.490Z,100
2023-03-19T04:35:23.946Z,100
2023-03-19T04:37:29.512Z,100
2023-03-19T04:39:35.050Z,100
2023-03-19T04:41:40.752Z,100
2023-03-19T04:43:46.095Z,100
2023-03-19T04:45:52.365Z,100
2023-03-19T04:47:57.873Z,100
2023-03-19T04:50:03.400Z,100
2023-03-19T04:52:09.021Z,100
2023-03-19T04:54:14.802Z,100
2023-03-19T04:56:20.166Z,100
2023-03-19T04:58:25.594Z,100
2023-03-19T05:00:31.719Z,100
2023-03-19T05:02:37.454Z,100
2023-03-19T05:04:43.049Z,100
2023-03-19T05:06:48.748Z,100
2023-03-19T05:08:54.265Z,100
2023-03-19T05:10:59.709Z,100
2023-03-19T05:13:05.125Z,100
2023-03-19T05:15:11.166Z,100
2023-03-19T05:17:16.818Z,100
2023-03-19T05:19:22.546Z,100
2023-03-19T05:21:28.193Z,100
2023-03-19T05:23:33.673Z,100
2023-03-19T05:25:39.141Z,100
2023-03-19T05:27:44.707Z,100
2023-03-19T05:29:50.049Z,100
2023-03-19T05:31:55.525Z,100
2023-03-19T05:34:00.868Z,100
2023-03-19T05:36:07.421Z,100
2023-03-19T05:38:13.268Z,100
2023-03-19T05:40:19.139Z,100
2023-03-19T05:42:24.612Z,100
2023-03-19T05:44:30.244Z,100
2023-03-19T05:46:36.032Z,100
2023-03-19T05:48:41.480Z,100
2023-03-19T05:50:46.856Z,100
2023-03-19T05:52:52.435Z,100
2023-03-19T05:55:01.793Z,100
2023-03-19T05:57:09.056Z,100
2023-03-19T05:59:14.564Z,100
2023-03-19T06:01:20.459Z,100
2023-03-19T06:03:26.240Z,100
2023-03-19T06:05:32.161Z,100
2023-03-19T06:07:37.720Z,100
2023-03-19T06:09:43.425Z,100
2023-03-19T06:11:49.116Z,100
2023-03-19T06:13:56.037Z,100
2023-03-19T06:16:02.075Z,100
2023-03-19T06:18:07.568Z,100
2023-03-19T06:20:13.268Z,100
2023-03-19T06:22:18.926Z,100
2023-03-19T06:24:24.267Z,100
2023-03-19T06:26:30.096Z,100
2023-03-19T06:28:36.174Z,100
2023-03-19T06:30:42.296Z,100
2023-03-19T06:32:48.019Z,100
2023-03-19T06:34:53.705Z,100
2023-03-19T06:36:59.422Z,100
2023-03-19T06:39:04.907Z,100
2023-03-19T06:41:10.567Z,100
2023-03-19T06:43:16.247Z,100
2023-03-19T06:45:22.003Z,100
2023-03-19T06:47:27.550Z,100
2023-03-19T06:49:33.674Z,100
2023-03-19T06:51:39.711Z,100
2023-03-19T06:53:45.272Z,100
2023-03-19T06:55:50.978Z,100
2023-03-19T06:57:56.362Z,100
2023-03-19T07:00:02.055Z,100
2023-03-19T07:02:10.342Z,100
2023-03-19T07:04:16.325Z,100
2023-03-19T07:06:24.922Z,100
2023-03-19T07:08:30.365Z,100
2023-03-19T07:10:37.054Z,100
2023-03-19T07:12:42.694Z,100
2023-03-19T07:14:47.924Z,100
2023-03-19T07:16:53.344Z,100
2023-03-19T07:18:58.958Z,100
2023-03-19T07:21:04.695Z,100
2023-03-19T07:23:10.163Z,100
2023-03-19T07:25:15.704Z,100
2023-03-19T07:27:21.165Z,100
2023-03-19T07:29:26.708Z,100
2023-03-19T07:31:32.423Z,100
2023-03-19T07:33:37.955Z,100
2023-03-19T07:35:49.787Z,100
2023-03-19T07:37:55.272Z,100
2023-03-19T07:40:01.393Z,100
2023-03-19T07:42:07.125Z,100
2023-03-19T07:44:12.438Z,100
2023-03-19T07:46:18.464Z,100
2023-03-19T07:48:24.304Z,100
2023-03-19T07:50:29.998Z,100
2023-03-19T07:52:35.867Z,100
2023-03-19T07:54:41.487Z,100
2023-03-19T07:56:47.040Z,100
2023-03-19T07:58:52.762Z,100
2023-03-19T08:00:58.986Z,100
2023-03-19T08:03:05.589Z,100
2023-03-19T08:05:12.833Z,100
2023-03-19T08:07:19.028Z,100
2023-03-19T08:09:24.913Z,100
2023-03-19T08:11:30.451Z,100
2023-03-19T08:13:35.913Z,100
2023-03-19T08:15:42.062Z,100
2023-03-19T08:17:49.174Z,100
2023-03-19T08:19:54.793Z,100
2023-03-19T08:22:02.162Z,100
2023-03-19T08:24:10.119Z,100
2023-03-19T08:26:15.782Z,100
2023-03-19T08:28:22.217Z,100
2023-03-19T08:30:29.062Z,100
2023-03-19T08:32:36.075Z,100
2023-03-19T08:34:42.992Z,100
2023-03-19T08:36:49.693Z,100
2023-03-19T08:38:59.259Z,100
2023-03-19T08:41:05.005Z,100
2023-03-19T08:43:10.538Z,100
2023-03-19T08:45:15.939Z,100
2023-03-19T08:47:21.541Z,100
2023-03-19T08:49:26.968Z,100
2023-03-19T08:51:32.609Z,97.49
2023-03-19T08:53:38.225Z,94.36
2023-03-19T08:55:43.731Z,97.54
2023-03-19T08:57:49.202Z,97.39
2023-03-19T08:59:55.953Z,92.48
2023-03-19T09:02:01.773Z,92.45
2023-03-19T09:04:17.154Z,91.69
2023-03-19T09:06:22.573Z,88.71
2023-03-19T09:08:30.545Z,91.25
2023-03-19T09:10:37.654Z,88.46
2023-03-19T09:12:48.653Z,89.02
2023-03-19T09:15:03.073Z,90.24
2023-03-19T09:17:08.457Z,86.82
2023-03-19T09:19:15.018Z,86.89
2023-03-19T09:21:21.022Z,85.8
2023-03-19T09:23:27.685Z,83.81
2023-03-19T09:25:34.037Z,83.93
2023-03-19T09:27:39.815Z,82.99
2023-03-19T09:29:45.394Z,86.19
2023-03-19T09:31:52.275Z,82.39
2023-03-19T09:33:58.600Z,82.94
2023-03-19T09:36:04.592Z,85.87
2023-03-19T09:38:10.213Z,84.38
2023-03-19T09:40:16.516Z,85.42
2023-03-19T09:42:23.316Z,81.69
2023-03-19T09:44:29.668Z,82.45
2023-03-19T09:46:36.854Z,80.85
2023-03-19T09:48:42.358Z,77.17
2023-03-19T09:50:47.830Z,79.22
2023-03-19T09:52:53.398Z,76.83
2023-03-19T09:54:59.984Z,80.7
2023-03-19T09:57:07.462Z,75.75
2023-03-19T09:59:12.920Z,73.71
2023-03-19T10:01:20.243Z,75.72
2023-03-19T10:03:27.035Z,70.74
2023-03-19T10:05:34.417Z,72
2023-03-19T10:07:40.142Z,72.5
2023-03-19T10:09:45.840Z,74.59
2023-03-19T10:11:51.322Z,72.22
2023-03-19T10:13:58.032Z,70.15
2023-03-19T10:16:03.955Z,69.01
2023-03-19T10:18:09.496Z,69.08
2023-03-19T10:20:15.405Z,71.16
2023-03-19T10:22:21.000Z,72.39
2023-03-19T10:24:27.354Z,70.38
2023-03-19T10:26:33.669Z,71.57
2023-03-19T10:28:39.186Z,69.1
2023-03-19T10:30:45.181Z,71.35
2023-03-19T10:32:51.405Z,68.32
2023-03-19T10:34:58.024Z,70.81
2023-03-19T10:37:03.868Z,68.87
2023-03-19T10:39:09.743Z,67.21
2023-03-19T10:41:17.416Z,66.14
2023-03-19T10:43:23.947Z,65.49
2023-03-19T10:45:32.466Z,66
2023-03-19T10:47:39.267Z,65.14
2023-03-19T10:49:44.780Z,65.08
2023-03-19T10:51:50.901Z,68.86
2023-03-19T10:53:58.416Z,66.31
2023-03-19T10:56:04.313Z,68
2023-03-19T10:58:09.912Z,67.33
2023-03-19T11:00:15.559Z,66.86
2023-03-19T11:02:23.231Z,64.63
2023-03-19T11:04:29.946Z,63.97
2023-03-19T11:06:36.434Z,62.3
2023-03-19T11:08:43.671Z,63.29
2023-03-19T11:10:50.164Z,64.84
2023-03-19T11:12:55.622Z,63.87
2023-03-19T11:15:01.690Z,65.25
2023-03-19T11:17:08.759Z,62.77
2023-03-19T11:19:15.653Z,63.2
2023-03-19T11:21:22.903Z,63.24
2023-03-19T11:23:29.184Z,64.02
2023-03-19T11:25:36.459Z,65.5
2023-03-19T11:27:43.818Z,63.98
2023-03-19T11:29:50.498Z,63.58
2023-03-19T11:31:56.464Z,63.78
2023-03-19T11:34:03.477Z,63.27
2023-03-19T11:36:10.055Z,63.84
2023-03-19T11:38:16.750Z,63.54
2023-03-19T11:40:26.099Z,65.7
2023-03-19T11:42:32.920Z,64.96
2023-03-19T11:44:39.531Z,63.65
2023-03-19T11:46:45.532Z,60.46
2023-03-19T11:48:52.381Z,61.51
2023-03-19T11:50:58.902Z,63.28
2023-03-19T11:53:05.099Z,63.15
2023-03-19T11:55:11.421Z,59.33
2023-03-19T11:57:19.320Z,60.94
2023-03-19T11:59:25.729Z,59.69
2023-03-19T12:01:32.787Z,60.68
2023-03-19T12:03:39.997Z,60.94
2023-03-19T12:05:47.219Z,61.03
2023-03-19T12:07:54.906Z,59.33
2023-03-19T12:10:01.351Z,60.35
2023-03-19T12:12:08.343Z,60.61
2023-03-19T12:14:16.664Z,59.31
2023-03-19T12:16:23.102Z,60.68
2023-03-19T12:18:28.931Z,61.43
2023-03-19T12:20:34.683Z,60.83
2023-03-19T12:22:40.087Z,60.91
2023-03-19T12:24:46.875Z,62.23
2023-03-19T12:26:52.801Z,62.42
2023-03-19T12:28:58.797Z,60.53
2023-03-19T12:31:05.527Z,61.24
2023-03-19T12:33:12.881Z,61.46
2023-03-19T12:35:18.435Z,61.08
2023-03-19T12:37:23.997Z,61.24
2023-03-19T12:39:30.583Z,61.09
2023-03-19T12:41:37.342Z,60.65
2023-03-19T12:43:43.339Z,61.39
2023-03-19T12:45:50.585Z,61.49
2023-03-19T12:47:56.013Z,62.01
2023-03-19T12:50:02.704Z,62.53
2023-03-19T12:52:08.080Z,62.06
2023-03-19T12:54:13.691Z,61.78
2023-03-19T12:56:19.995Z,61.69
2023-03-19T12:58:26.573Z,60.93
2023-03-19T13:00:35.549Z,61.24
2023-03-19T13:02:42.819Z,61.12
2023-03-19T13:04:48.981Z,61.68
2023-03-19T13:06:55.411Z,61.7
2023-03-19T13:09:03.191Z,61.44
2023-03-19T13:11:09.720Z,61.05
2023-03-19T13:13:17.390Z,61.64
2023-03-19T13:15:23.957Z,60.94
2023-03-19T13:17:31.275Z,60.95
2023-03-19T13:19:37.756Z,61.64
2023-03-19T13:21:45.696Z,61.24
2023-03-19T13:23:54.033Z,60.43
2023-03-19T13:26:00.613Z,59.48
2023-03-19T13:28:10.872Z,60.48
2023-03-19T13:30:17.489Z,59.99
2023-03-19T13:32:23.301Z,59.86
2023-03-19T13:34:30.130Z,60.47
2023-03-19T13:36:36.714Z,59.9
2023-03-19T13:38:42.974Z,59.36
2023-03-19T13:40:49.902Z,59.68
2023-03-19T13:42:56.319Z,58.62
2023-03-19T13:45:04.644Z,59.22
2023-03-19T13:47:10.609Z,59.78
2023-03-19T13:49:16.164Z,60.24
2023-03-19T13:51:22.763Z,60.16
2023-03-19T13:53:30.417Z,61.18
2023-03-19T13:55:36.624Z,60.21
2023-03-19T13:57:42.427Z,60.56
2023-03-19T13:59:48.401Z,60.56
2023-03-19T14:01:56.277Z,60.43
2023-03-19T14:04:03.328Z,58.8
2023-03-19T14:06:09.580Z,59.28
2023-03-19T14:08:16.152Z,59.62
2023-03-19T14:10:22.745Z,60.64
2023-03-19T14:12:29.899Z,60.15
2023-03-19T14:14:38.509Z,60.92
2023-03-19T14:16:46.148Z,59.95
2023-03-19T14:18:54.009Z,59.9
2023-03-19T14:21:06.447Z,59.63
2023-03-19T14:23:16.483Z,61.66
2023-03-19T14:25:23.481Z,60.68
2023-03-19T14:27:29.856Z,60.38
2023-03-19T14:29:35.861Z,60.08
2023-03-19T14:31:43.134Z,58.95
2023-03-19T14:33:51.152Z,59.61
2023-03-19T14:35:58.337Z,60.42
2023-03-19T14:38:06.104Z,59.6
2023-03-19T14:40:15.477Z,59.39
2023-03-19T14:42:24.896Z,60.53
2023-03-19T14:44:31.380Z,61.15
2023-03-19T14:46:38.219Z,60.37
2023-03-19T14:48:48.756Z,60.57
2023-03-19T14:50:54.684Z,61.69
2023-03-19T14:53:00.481Z,60.74
2023-03-19T14:55:06.471Z,61.02
2023-03-19T14:57:13.338Z,60.34
2023-03-19T14:59:20.206Z,61.56
2023-03-19T15:01:28.156Z,61.18
2023-03-19T15:03:34.538Z,60.65
2023-03-19T15:05:42.477Z,61.24
2023-03-19T15:07:48.357Z,60.84
2023-03-19T15:09:56.239Z,60.69
2023-03-19T15:12:04.454Z,61.62
2023-03-19T15:14:11.963Z,62.3
2023-03-19T15:16:20.265Z,62.45
2023-03-19T15:18:29.763Z,62.1
2023-03-19T15:20:35.635Z,62.7
2023-03-19T15:22:41.969Z,62.6
2023-03-19T15:24:48.744Z,62.49
2023-03-19T15:26:55.081Z,61.94
2023-03-19T15:29:04.389Z,62.08
2023-03-19T15:32:05.051Z,62.32
2023-03-19T15:34:14.141Z,63.93
2023-03-19T15:36:27.827Z,65.74
2023-03-19T15:38:33.815Z,67.09
2023-03-19T15:40:41.625Z,68.29
2023-03-19T15:42:50.188Z,68.66
2023-03-19T15:44:57.527Z,68.59
2023-03-19T15:47:03.984Z,68.86
2023-03-19T15:49:10.934Z,69.77
2023-03-19T15:51:16.906Z,70.69
2023-03-19T15:53:26.346Z,72.21
2023-03-19T15:55:34.431Z,74.5
2023-03-19T15:57:42.878Z,77.75
2023-03-19T15:59:53.664Z,78.74
2023-03-19T16:02:02.662Z,80.43
2023-03-19T16:04:09.880Z,82.78
2023-03-19T16:06:18.643Z,80.98
2023-03-19T16:08:26.386Z,81.64
2023-03-19T16:10:37.449Z,83.39
2023-03-19T16:12:49.206Z,83.99
2023-03-19T16:15:00.849Z,87.78
2023-03-19T16:17:11.084Z,90.33
2023-03-19T16:19:19.962Z,92.99
2023-03-19T16:21:30.268Z,96.64
2023-03-19T16:23:38.526Z,97.34
2023-03-19T16:25:47.423Z,98.95
2023-03-19T16:27:59.161Z,100
2023-03-19T16:30:08.772Z,100
2023-03-19T16:32:19.108Z,100
2023-03-19T16:34:31.471Z,100
2023-03-19T16:36:41.404Z,100
2023-03-19T16:38:52.086Z,100
2023-03-19T16:41:02.150Z,100
2023-03-19T16:43:13.824Z,100
2023-03-19T16:45:27.620Z,100
2023-03-19T16:47:37.851Z,100
2023-03-19T16:49:46.772Z,100
2023-03-19T16:51:59.990Z,100
2023-03-19T16:54:09.286Z,100
2023-03-19T16:56:22.990Z,100
2023-03-19T16:58:33.004Z,100
2023-03-19T17:00:50.646Z,100
2023-03-19T17:03:01.797Z,100
2023-03-19T17:05:12.474Z,100
2023-03-19T17:07:26.752Z,100
2023-03-19T17:09:36.838Z,100
2023-03-19T17:11:45.321Z,100
2023-03-19T17:13:52.556Z,100
2023-03-19T17:16:02.666Z,100
2023-03-19T17:18:12.356Z,100
2023-03-19T17:20:21.448Z,100
2023-03-19T17:22:32.937Z,100
2023-03-19T17:24:42.082Z,100
2023-03-19T17:27:04.317Z,100
2023-03-19T17:29:16.851Z,100
2023-03-19T17:31:27.049Z,100
2023-03-19T17:33:36.640Z,100
2023-03-19T17:35:47.321Z,100
2023-03-19T17:38:00.030Z,100
2023-03-19T17:40:09.280Z,100
2023-03-19T17:42:25.260Z,100
2023-03-19T17:44:35.297Z,100
2023-03-19T17:46:46.085Z,100
2023-03-19T17:49:00.172Z,100
2023-03-19T17:51:13.990Z,100
2023-03-19T17:53:26.362Z,100
2023-03-19T17:55:37.160Z,100
2023-03-19T17:57:47.690Z,100
2023-03-19T18:00:03.132Z,100
2023-03-19T18:02:15.834Z,100
2023-03-19T18:04:25.658Z,100
2023-03-19T18:06:36.362Z,100
2023-03-19T18:09:03.864Z,100
2023-03-19T18:11:17.891Z,100
2023-03-19T18:13:27.848Z,100
2023-03-19T18:15:44.992Z,100
2023-03-19T18:17:56.633Z,100
2023-03-19T18:20:07.646Z,100
2023-03-19T18:22:20.796Z,100
2023-03-19T18:24:32.097Z,100
2023-03-19T18:26:42.036Z,100
2023-03-19T18:28:58.191Z,100
2023-03-19T18:31:06.859Z,100
2023-03-19T18:33:17.943Z,100
2023-03-19T18:35:28.590Z,100
2023-03-19T18:37:38.618Z,100
2023-03-19T18:39:50.439Z,100
2023-03-19T18:42:09.683Z,100
2023-03-19T18:44:19.808Z,100
2023-03-19T18:46:34.685Z,100
2023-03-19T18:48:47.190Z,100
2023-03-19T18:51:00.520Z,100
2023-03-19T18:53:13.667Z,100
2023-03-19T18:55:25.220Z,100
2023-03-19T18:57:57.105Z,100
2023-03-19T19:00:05.982Z,100
2023-03-19T19:02:18.371Z,100
2023-03-19T19:04:37.308Z,100
2023-03-19T19:06:59.276Z,100
2023-03-19T19:09:10.029Z,100
2023-03-19T19:11:20.867Z,100
2023-03-19T19:13:31.327Z,100
2023-03-19T19:15:41.549Z,100
2023-03-19T19:18:03.007Z,100
2023-03-19T19:20:18.245Z,100
2023-03-19T19:22:30.266Z,100
2023-03-19T19:24:45.498Z,100
2023-03-19T19:26:55.796Z,100
2023-03-19T19:29:06.971Z,100
2023-03-19T19:31:25.036Z,100
2023-03-19T19:33:39.593Z,100
2023-03-19T19:35:55.522Z,100
2023-03-19T19:38:08.265Z,100
2023-03-19T19:40:25.880Z,100
2023-03-19T19:42:42.006Z,100
2023-03-19T19:44:54.245Z,100
2023-03-19T19:47:09.202Z,100
2023-03-19T19:49:24.871Z,100
2023-03-19T19:51:43.588Z,100
2023-03-19T19:53:55.946Z,100
2023-03-19T19:56:06.508Z,100
2023-03-19T19:58:17.765Z,100
2023-03-19T20:00:29.939Z,100
2023-03-19T20:02:43.982Z,100
2023-03-19T20:04:58.234Z,100
2023-03-19T20:07:14.661Z,100
2023-03-19T20:09:26.533Z,100
2023-03-19T20:11:42.891Z,100
2023-03-19T20:13:53.939Z,100
2023-03-19T20:16:09.945Z,100
2023-03-19T20:18:22.495Z,100
2023-03-19T20:20:34.555Z,100
2023-03-19T20:22:50.603Z,100
2023-03-19T20:25:09.007Z,100
2023-03-19T20:27:27.137Z,100
2023-03-19T20:29:37.592Z,100
2023-03-19T20:31:48.132Z,100
2023-03-19T20:33:57.907Z,100
2023-03-19T20:36:12.900Z,100
2023-03-19T20:38:22.366Z,100
2023-03-19T20:40:32.938Z,100
2023-03-19T20:42:47.076Z,100
2023-03-19T20:44:58.592Z,100
2023-03-19T20:47:09.793Z,100
2023-03-19T20:49:22.800Z,100
2023-03-19T20:51:34.613Z,100
2023-03-19T20:53:49.239Z,100
2023-03-19T20:56:01.089Z,100
2023-03-19T20:58:13.626Z,100
2023-03-19T21:00:29.010Z,100
2023-03-19T21:02:44.380Z,100
2023-03-19T21:04:55.407Z,100
2023-03-19T21:07:09.331Z,100
2023-03-19T21:09:20.769Z,100
2023-03-19T21:11:31.463Z,100
2023-03-19T21:13:47.409Z,100
2023-03-19T21:15:58.565Z,100
2023-03-19T21:18:06.919Z,100
2023-03-19T21:20:16.163Z,100
2023-03-19T21:22:28.205Z,100
2023-03-19T21:24:39.345Z,100
2023-03-19T21:26:48.000Z,100
2023-03-19T21:28:59.394Z,100
2023-03-19T21:31:08.283Z,100
2023-03-19T21:33:20.653Z,100
2023-03-19T21:35:28.370Z,100
2023-03-19T21:37:35.967Z,100
2023-03-19T21:39:42.340Z,100
2023-03-19T21:41:49.530Z,100
2023-03-19T21:43:56.726Z,100
2023-03-19T21:46:25.492Z,100
2023-03-19T21:48:32.741Z,100
2023-03-19T21:50:38.589Z,100
2023-03-19T21:53:04.415Z,100
2023-03-19T21:55:10.727Z,100
2023-03-19T21:57:16.683Z,100
2023-03-19T21:59:22.676Z,100
2023-03-19T22:01:28.437Z,100
2023-03-19T22:03:34.394Z,100
2023-03-19T22:05:41.326Z,100
2023-03-19T22:07:47.246Z,100
2023-03-19T22:09:53.747Z,100
2023-03-19T22:12:00.221Z,100
2023-03-19T22:14:06.539Z,100
2023-03-19T22:16:12.254Z,100
2023-03-19T22:18:17.883Z,100
2023-03-19T22:20:24.057Z,100
2023-03-19T22:22:31.206Z,100
2023-03-19T22:24:36.978Z,100
2023-03-19T22:26:44.367Z,100
2023-03-19T22:28:49.815Z,100
2023-03-19T22:30:55.562Z,100
2023-03-19T22:33:02.021Z,100
2023-03-19T22:35:08.764Z,100
2023-03-19T22:37:14.837Z,100
2023-03-19T22:39:20.155Z,100
2023-03-19T22:41:25.966Z,100
2023-03-19T22:43:32.722Z,100
2023-03-19T22:45:39.656Z,100
2023-03-19T22:47:45.147Z,100
2023-03-19T22:49:50.819Z,100
2023-03-19T22:51:57.117Z,100
2023-03-19T22:54:02.700Z,100
2023-03-19T22:56:09.865Z,100
2023-03-19T22:58:15.363Z,100
2023-03-19T23:00:22.970Z,100
2023-03-19T23:02:28.450Z,100
2023-03-19T23:04:34.624Z,100
2023-03-19T23:06:40.190Z,100
2023-03-19T23:08:45.642Z,100
2023-03-19T23:10:51.605Z,100
2023-03-19T23:12:58.162Z,100
2023-03-19T23:15:03.794Z,100
2023-03-19T23:17:09.273Z,100
2023-03-19T23:19:14.979Z,100
2023-03-19T23:21:20.435Z,100
2023-03-19T23:23:29.042Z,100
2023-03-19T23:25:34.694Z,100
2023-03-19T23:27:40.319Z,100
2023-03-19T23:29:45.657Z,100
2023-03-19T23:31:51.396Z,100
2023-03-19T23:33:57.015Z,100
2023-03-19T23:36:02.958Z,100
2023-03-19T23:38:08.348Z,100
2023-03-19T23:40:13.798Z,100
2023-03-19T23:42:19.303Z,100
2023-03-19T23:44:24.999Z,100
2023-03-19T23:46:31.700Z,100
2023-03-19T23:48:37.036Z,100
2023-03-19T23:50:42.637Z,100
2023-03-19T23:52:48.133Z,100
2023-03-19T23:54:53.833Z,100
2023-03-19T23:56:59.477Z,100
2023-03-19T23:59:05.007Z,100
